Weather

Webcam

Metar / TAF

Zurich

  • LSZH 160950Z 22008KT 200V260 9999 FEW032 13/05 Q1018 NOSIG

  • TAF LSZH 160825Z 1609/1715 18005KT 9999 FEW020 TX18/1614Z TN06/1704Z TX18/1714Z BECMG 1609/1611 CAVOK BECMG 1700/1703 4500 MIFG NSC PROB40 1702/1706 1500 BCFG NSC BECMG 1707/1709 CAVOK BECMG 1714/1715 9999 SCT080

Dübendorf

  • LSMD 160950Z VRB01KT CAVOK 10/04 Q1018 RMK BLU

  • TAF LSMD 160925Z 1610/1716 VRB03KT CAVOK BECMG 1700/1703 4500 MIFG NSC PROB40 1702/1706 1500 BCFG NSC BECMG 1708/1710 CAVOK BECMG 1715/1716 9999 SCT080

St. Gallen

  • LSZR 160950Z 16007KT CAVOK 15/07 Q1018 NOSIG RMK G

  • TAF AMD LSZR 222054Z 2220/2224 CNL

Bern

  • LSZB 160950Z 11004KT CAVOK 11/07 Q1018 NOSIG

  • TAF AMD TAF AMD LSZB 222054Z 2220/2224 CNL

Locarno

  • LSZL 160950Z VRB04KT CAVOK 14/09 Q1017 RMK BLU

  • TAF AMD TAF AMD LSZL 150713Z 1509/1521 VRB03KT 9999 SCT050

Samedan

  • LSZS 160950Z VRB02KT 9999 FEW005 03/03 Q1019 RMK J

  • TAF AMD LSZS 222054Z 2220/2224 CNL

Geneve

  • LSGG 160950Z VRB03KT 9999 FEW025 12/06 Q1018 NOSIG

  • TAF TAF LSGG 160825Z 1609/1715 23006KT CAVOK TX18/1615Z TN08/1705Z TX18/1715Z BECMG 1700/1703 9999 BKN090

Weather-Charts



Wind at FL50: 06:00z, 09:00z, 12:00z, 15:00z and 18:00z